sensor_id;sensor_type;location;lat;lon;timestamp;P1;durP1;ratioP1;P2;durP2;ratioP2
68614;SDS011;55593;51.994;5.882;2023-05-14T00:00:53;16.75;;;9.65;;
68614;SDS011;55593;51.994;5.882;2023-05-14T00:03:22;11.95;;;9.32;;
68614;SDS011;55593;51.994;5.882;2023-05-14T00:05:52;20.48;;;10.23;;
68614;SDS011;55593;51.994;5.882;2023-05-14T00:08:21;17.35;;;10.63;;
68614;SDS011;55593;51.994;5.882;2023-05-14T00:10:50;16.35;;;9.93;;
68614;SDS011;55593;51.994;5.882;2023-05-14T00:13:20;14.63;;;9.38;;
68614;SDS011;55593;51.994;5.882;2023-05-14T00:15:51;14.52;;;10.20;;
68614;SDS011;55593;51.994;5.882;2023-05-14T00:18:21;17.13;;;10.38;;
68614;SDS011;55593;51.994;5.882;2023-05-14T00:20:50;14.65;;;10.75;;
68614;SDS011;55593;51.994;5.882;2023-05-14T00:23:19;17.30;;;11.30;;
68614;SDS011;55593;51.994;5.882;2023-05-14T00:25:49;17.70;;;10.75;;
68614;SDS011;55593;51.994;5.882;2023-05-14T00:28:18;15.07;;;9.98;;
68614;SDS011;55593;51.994;5.882;2023-05-14T00:30:47;18.42;;;10.77;;
68614;SDS011;55593;51.994;5.882;2023-05-14T00:33:19;23.05;;;11.30;;
68614;SDS011;55593;51.994;5.882;2023-05-14T00:35:48;13.35;;;10.57;;
68614;SDS011;55593;51.994;5.882;2023-05-14T00:38:17;16.73;;;10.90;;
68614;SDS011;55593;51.994;5.882;2023-05-14T00:40:49;15.43;;;10.15;;
68614;SDS011;55593;51.994;5.882;2023-05-14T00:43:18;18.38;;;11.13;;
68614;SDS011;55593;51.994;5.882;2023-05-14T00:45:48;20.15;;;11.20;;
68614;SDS011;55593;51.994;5.882;2023-05-14T00:48:20;14.13;;;10.18;;
68614;SDS011;55593;51.994;5.882;2023-05-14T00:50:50;17.38;;;11.15;;
68614;SDS011;55593;51.994;5.882;2023-05-14T00:53:19;17.45;;;11.48;;
68614;SDS011;55593;51.994;5.882;2023-05-14T00:55:49;18.70;;;11.10;;
68614;SDS011;55593;51.994;5.882;2023-05-14T00:58:19;18.70;;;11.40;;
68614;SDS011;55593;51.994;5.882;2023-05-14T01:00:49;15.73;;;11.43;;
68614;SDS011;55593;51.994;5.882;2023-05-14T01:03:21;18.83;;;12.13;;
68614;SDS011;55593;51.994;5.882;2023-05-14T01:05:55;19.00;;;10.95;;
68614;SDS011;55593;51.994;5.882;2023-05-14T01:08:30;16.08;;;11.18;;
68614;SDS011;55593;51.994;5.882;2023-05-14T01:11:13;19.23;;;11.52;;
68614;SDS011;55593;51.994;5.882;2023-05-14T01:13:49;14.82;;;10.95;;
68614;SDS011;55593;51.994;5.882;2023-05-14T01:16:21;19.98;;;11.75;;
68614;SDS011;55593;51.994;5.882;2023-05-14T01:18:56;16.98;;;11.43;;
68614;SDS011;55593;51.994;5.882;2023-05-14T01:21:35;14.50;;;11.18;;
68614;SDS011;55593;51.994;5.882;2023-05-14T01:24:05;15.88;;;10.63;;
68614;SDS011;55593;51.994;5.882;2023-05-14T01:26:35;18.20;;;12.07;;
68614;SDS011;55593;51.994;5.882;2023-05-14T01:29:07;18.80;;;12.23;;
68614;SDS011;55593;51.994;5.882;2023-05-14T01:31:42;14.15;;;11.32;;
68614;SDS011;55593;51.994;5.882;2023-05-14T01:34:12;19.35;;;12.50;;
68614;SDS011;55593;51.994;5.882;2023-05-14T01:36:44;25.13;;;12.95;;
68614;SDS011;55593;51.994;5.882;2023-05-14T01:39:15;17.45;;;13.75;;
68614;SDS011;55593;51.994;5.882;2023-05-14T01:41:44;19.15;;;12.35;;
68614;SDS011;55593;51.994;5.882;2023-05-14T01:44:14;16.77;;;12.43;;
68614;SDS011;55593;51.994;5.882;2023-05-14T01:46:43;16.95;;;12.82;;
68614;SDS011;55593;51.994;5.882;2023-05-14T01:49:12;17.63;;;12.25;;
68614;SDS011;55593;51.994;5.882;2023-05-14T01:51:45;17.55;;;13.07;;
68614;SDS011;55593;51.994;5.882;2023-05-14T01:54:14;18.05;;;13.63;;
68614;SDS011;55593;51.994;5.882;2023-05-14T01:56:44;20.17;;;12.38;;
68614;SDS011;55593;51.994;5.882;2023-05-14T01:59:13;20.13;;;13.23;;
68614;SDS011;55593;51.994;5.882;2023-05-14T02:01:42;22.08;;;13.43;;
68614;SDS011;55593;51.994;5.882;2023-05-14T02:04:11;18.35;;;12.30;;
68614;SDS011;55593;51.994;5.882;2023-05-14T02:06:41;20.90;;;13.63;;
68614;SDS011;55593;51.994;5.882;2023-05-14T02:09:12;20.65;;;14.10;;
68614;SDS011;55593;51.994;5.882;2023-05-14T02:11:42;20.58;;;13.55;;
68614;SDS011;55593;51.994;5.882;2023-05-14T02:14:11;23.45;;;13.88;;
68614;SDS011;55593;51.994;5.882;2023-05-14T02:16:40;18.08;;;13.68;;
68614;SDS011;55593;51.994;5.882;2023-05-14T02:19:09;21.90;;;14.50;;
68614;SDS011;55593;51.994;5.882;2023-05-14T02:21:38;20.83;;;14.27;;
68614;SDS011;55593;51.994;5.882;2023-05-14T02:24:08;23.00;;;14.13;;
68614;SDS011;55593;51.994;5.882;2023-05-14T02:26:39;20.58;;;14.35;;
68614;SDS011;55593;51.994;5.882;2023-05-14T02:29:09;18.77;;;13.55;;
68614;SDS011;55593;51.994;5.882;2023-05-14T02:31:38;24.67;;;14.57;;
68614;SDS011;55593;51.994;5.882;2023-05-14T02:34:08;23.10;;;14.02;;
68614;SDS011;55593;51.994;5.882;2023-05-14T02:36:37;19.55;;;13.30;;
68614;SDS011;55593;51.994;5.882;2023-05-14T02:39:06;20.63;;;13.38;;
68614;SDS011;55593;51.994;5.882;2023-05-14T02:41:35;19.75;;;13.70;;
68614;SDS011;55593;51.994;5.882;2023-05-14T02:44:07;25.42;;;15.18;;
68614;SDS011;55593;51.994;5.882;2023-05-14T02:46:36;20.00;;;13.85;;
68614;SDS011;55593;51.994;5.882;2023-05-14T02:49:05;22.23;;;14.68;;
68614;SDS011;55593;51.994;5.882;2023-05-14T02:51:35;22.27;;;14.85;;
68614;SDS011;55593;51.994;5.882;2023-05-14T02:54:04;22.63;;;13.68;;
68614;SDS011;55593;51.994;5.882;2023-05-14T02:56:33;21.08;;;14.35;;
68614;SDS011;55593;51.994;5.882;2023-05-14T02:59:03;20.52;;;13.98;;
68614;SDS011;55593;51.994;5.882;2023-05-14T03:01:35;22.95;;;15.20;;
68614;SDS011;55593;51.994;5.882;2023-05-14T03:04:04;19.75;;;14.25;;
68614;SDS011;55593;51.994;5.882;2023-05-14T03:06:34;25.05;;;15.65;;
68614;SDS011;55593;51.994;5.882;2023-05-14T03:09:03;18.08;;;15.02;;
68614;SDS011;55593;51.994;5.882;2023-05-14T03:11:32;21.60;;;14.70;;
68614;SDS011;55593;51.994;5.882;2023-05-14T03:14:01;19.75;;;15.35;;
68614;SDS011;55593;51.994;5.882;2023-05-14T03:16:30;22.30;;;15.50;;
68614;SDS011;55593;51.994;5.882;2023-05-14T03:19:02;24.38;;;15.60;;
68614;SDS011;55593;51.994;5.882;2023-05-14T03:21:31;19.83;;;15.13;;
68614;SDS011;55593;51.994;5.882;2023-05-14T03:24:01;23.63;;;14.07;;
68614;SDS011;55593;51.994;5.882;2023-05-14T03:26:30;19.13;;;15.43;;
68614;SDS011;55593;51.994;5.882;2023-05-14T03:28:59;20.85;;;16.10;;
68614;SDS011;55593;51.994;5.882;2023-05-14T03:31:28;21.55;;;15.70;;
68614;SDS011;55593;51.994;5.882;2023-05-14T03:33:57;21.33;;;15.05;;
68614;SDS011;55593;51.994;5.882;2023-05-14T03:36:29;23.55;;;16.05;;
68614;SDS011;55593;51.994;5.882;2023-05-14T03:39:01;22.88;;;15.38;;
68614;SDS011;55593;51.994;5.882;2023-05-14T03:41:31;24.90;;;16.25;;
68614;SDS011;55593;51.994;5.882;2023-05-14T03:44:00;26.60;;;16.70;;
68614;SDS011;55593;51.994;5.882;2023-05-14T03:46:31;20.80;;;15.20;;
68614;SDS011;55593;51.994;5.882;2023-05-14T03:49:00;22.15;;;17.10;;
68614;SDS011;55593;51.994;5.882;2023-05-14T03:51:32;23.02;;;16.20;;
68614;SDS011;55593;51.994;5.882;2023-05-14T03:54:05;23.70;;;16.88;;
68614;SDS011;55593;51.994;5.882;2023-05-14T03:56:34;23.30;;;16.58;;
68614;SDS011;55593;51.994;5.882;2023-05-14T03:59:04;24.70;;;17.83;;
68614;SDS011;55593;51.994;5.882;2023-05-14T04:01:33;25.83;;;16.98;;
68614;SDS011;55593;51.994;5.882;2023-05-14T04:04:02;21.50;;;16.52;;
68614;SDS011;55593;51.994;5.882;2023-05-14T04:06:34;20.55;;;16.58;;
68614;SDS011;55593;51.994;5.882;2023-05-14T04:09:03;26.15;;;17.60;;
68614;SDS011;55593;51.994;5.882;2023-05-14T04:11:34;31.20;;;17.35;;
68614;SDS011;55593;51.994;5.882;2023-05-14T04:14:03;25.77;;;18.08;;
68614;SDS011;55593;51.994;5.882;2023-05-14T04:16:32;26.35;;;16.35;;
68614;SDS011;55593;51.994;5.882;2023-05-14T04:19:02;28.65;;;18.05;;
68614;SDS011;55593;51.994;5.882;2023-05-14T04:21:34;27.75;;;16.83;;
68614;SDS011;55593;51.994;5.882;2023-05-14T04:24:03;23.85;;;16.58;;
68614;SDS011;55593;51.994;5.882;2023-05-14T04:26:33;24.88;;;17.00;;
68614;SDS011;55593;51.994;5.882;2023-05-14T04:29:02;23.88;;;16.83;;
68614;SDS011;55593;51.994;5.882;2023-05-14T04:31:31;21.83;;;16.40;;
68614;SDS011;55593;51.994;5.882;2023-05-14T04:34:01;22.90;;;15.73;;
68614;SDS011;55593;51.994;5.882;2023-05-14T04:36:30;26.52;;;18.20;;
68614;SDS011;55593;51.994;5.882;2023-05-14T04:39:02;21.42;;;15.40;;
68614;SDS011;55593;51.994;5.882;2023-05-14T04:41:31;21.92;;;16.13;;
68614;SDS011;55593;51.994;5.882;2023-05-14T04:44:01;27.50;;;16.70;;
68614;SDS011;55593;51.994;5.882;2023-05-14T04:46:30;25.85;;;16.27;;
68614;SDS011;55593;51.994;5.882;2023-05-14T04:48:59;24.45;;;16.42;;
68614;SDS011;55593;51.994;5.882;2023-05-14T04:51:29;23.83;;;16.42;;
68614;SDS011;55593;51.994;5.882;2023-05-14T04:53:58;20.60;;;16.60;;
68614;SDS011;55593;51.994;5.882;2023-05-14T04:56:30;21.73;;;16.92;;
68614;SDS011;55593;51.994;5.882;2023-05-14T04:58:59;23.45;;;16.25;;
68614;SDS011;55593;51.994;5.882;2023-05-14T05:01:28;22.92;;;16.02;;
68614;SDS011;55593;51.994;5.882;2023-05-14T05:03:57;21.58;;;16.40;;
68614;SDS011;55593;51.994;5.882;2023-05-14T05:06:27;22.48;;;16.17;;
68614;SDS011;55593;51.994;5.882;2023-05-14T05:08:58;22.23;;;15.43;;
68614;SDS011;55593;51.994;5.882;2023-05-14T05:11:29;18.55;;;15.52;;
68614;SDS011;55593;51.994;5.882;2023-05-14T05:13:58;26.38;;;16.77;;
68614;SDS011;55593;51.994;5.882;2023-05-14T05:16:28;24.10;;;16.30;;
68614;SDS011;55593;51.994;5.882;2023-05-14T05:18:57;21.80;;;16.20;;
68614;SDS011;55593;51.994;5.882;2023-05-14T05:21:26;21.33;;;16.10;;
68614;SDS011;55593;51.994;5.882;2023-05-14T05:23:55;19.90;;;15.02;;
68614;SDS011;55593;51.994;5.882;2023-05-14T05:26:25;22.63;;;15.63;;
68614;SDS011;55593;51.994;5.882;2023-05-14T05:28:56;25.95;;;15.98;;
68614;SDS011;55593;51.994;5.882;2023-05-14T05:31:26;24.42;;;15.20;;
68614;SDS011;55593;51.994;5.882;2023-05-14T05:33:55;22.20;;;15.93;;
68614;SDS011;55593;51.994;5.882;2023-05-14T05:36:24;25.55;;;15.18;;
68614;SDS011;55593;51.994;5.882;2023-05-14T05:38:53;22.75;;;16.35;;
68614;SDS011;55593;51.994;5.882;2023-05-14T05:41:23;22.77;;;16.15;;
68614;SDS011;55593;51.994;5.882;2023-05-14T05:43:52;25.33;;;15.57;;
68614;SDS011;55593;51.994;5.882;2023-05-14T05:46:24;22.02;;;15.55;;
68614;SDS011;55593;51.994;5.882;2023-05-14T05:48:53;27.17;;;16.75;;
68614;SDS011;55593;51.994;5.882;2023-05-14T05:51:22;20.67;;;15.45;;
68614;SDS011;55593;51.994;5.882;2023-05-14T05:53:52;26.13;;;16.50;;
68614;SDS011;55593;51.994;5.882;2023-05-14T05:56:21;25.05;;;16.35;;
68614;SDS011;55593;51.994;5.882;2023-05-14T05:58:50;22.73;;;17.23;;
68614;SDS011;55593;51.994;5.882;2023-05-14T06:01:19;27.23;;;16.88;;
68614;SDS011;55593;51.994;5.882;2023-05-14T06:03:51;21.48;;;15.43;;
68614;SDS011;55593;51.994;5.882;2023-05-14T06:06:20;22.13;;;15.13;;
68614;SDS011;55593;51.994;5.882;2023-05-14T06:08:50;23.17;;;15.55;;
68614;SDS011;55593;51.994;5.882;2023-05-14T06:11:19;17.77;;;14.25;;
68614;SDS011;55593;51.994;5.882;2023-05-14T06:13:48;19.83;;;16.10;;
68614;SDS011;55593;51.994;5.882;2023-05-14T06:16:17;22.27;;;14.18;;
68614;SDS011;55593;51.994;5.882;2023-05-14T06:18:46;19.70;;;14.93;;
68614;SDS011;55593;51.994;5.882;2023-05-14T06:21:19;22.15;;;14.95;;
68614;SDS011;55593;51.994;5.882;2023-05-14T06:23:48;25.02;;;15.40;;
68614;SDS011;55593;51.994;5.882;2023-05-14T06:26:18;21.88;;;15.43;;
68614;SDS011;55593;51.994;5.882;2023-05-14T06:28:47;19.80;;;14.57;;
68614;SDS011;55593;51.994;5.882;2023-05-14T06:31:16;27.95;;;16.90;;
68614;SDS011;55593;51.994;5.882;2023-05-14T06:33:45;25.88;;;15.25;;
68614;SDS011;55593;51.994;5.882;2023-05-14T06:36:15;20.55;;;15.02;;
68614;SDS011;55593;51.994;5.882;2023-05-14T06:38:46;25.17;;;15.60;;
68614;SDS011;55593;51.994;5.882;2023-05-14T06:41:15;19.92;;;13.65;;
68614;SDS011;55593;51.994;5.882;2023-05-14T06:43:46;20.38;;;15.05;;
68614;SDS011;55593;51.994;5.882;2023-05-14T06:46:15;21.75;;;14.60;;
68614;SDS011;55593;51.994;5.882;2023-05-14T06:48:44;21.25;;;13.57;;
68614;SDS011;55593;51.994;5.882;2023-05-14T06:51:13;19.15;;;12.80;;
68614;SDS011;55593;51.994;5.882;2023-05-14T06:53:42;20.40;;;13.98;;
68614;SDS011;55593;51.994;5.882;2023-05-14T06:56:16;21.13;;;13.77;;
68614;SDS011;55593;51.994;5.882;2023-05-14T06:58:46;22.23;;;14.27;;
68614;SDS011;55593;51.994;5.882;2023-05-14T07:01:15;16.23;;;12.85;;
68614;SDS011;55593;51.994;5.882;2023-05-14T07:03:44;21.50;;;13.35;;
68614;SDS011;55593;51.994;5.882;2023-05-14T07:06:14;17.65;;;12.88;;
68614;SDS011;55593;51.994;5.882;2023-05-14T07:08:43;22.98;;;12.90;;
68614;SDS011;55593;51.994;5.882;2023-05-14T07:11:12;18.52;;;12.43;;
68614;SDS011;55593;51.994;5.882;2023-05-14T07:13:44;20.23;;;13.27;;
68614;SDS011;55593;51.994;5.882;2023-05-14T07:16:13;19.05;;;13.20;;
68614;SDS011;55593;51.994;5.882;2023-05-14T07:18:43;15.98;;;11.00;;
68614;SDS011;55593;51.994;5.882;2023-05-14T07:21:12;21.65;;;11.45;;
68614;SDS011;55593;51.994;5.882;2023-05-14T07:23:41;15.80;;;11.05;;
68614;SDS011;55593;51.994;5.882;2023-05-14T07:26:10;17.23;;;10.98;;
68614;SDS011;55593;51.994;5.882;2023-05-14T07:28:42;17.02;;;11.55;;
68614;SDS011;55593;51.994;5.882;2023-05-14T07:31:11;15.20;;;10.90;;
68614;SDS011;55593;51.994;5.882;2023-05-14T07:33:40;17.00;;;11.07;;
68614;SDS011;55593;51.994;5.882;2023-05-14T07:36:09;23.38;;;11.80;;
68614;SDS011;55593;51.994;5.882;2023-05-14T07:38:39;17.92;;;11.52;;
68614;SDS011;55593;51.994;5.882;2023-05-14T07:41:08;16.42;;;11.23;;
68614;SDS011;55593;51.994;5.882;2023-05-14T07:43:37;17.63;;;11.65;;
68614;SDS011;55593;51.994;5.882;2023-05-14T07:46:09;14.80;;;9.90;;
68614;SDS011;55593;51.994;5.882;2023-05-14T07:48:38;18.55;;;11.18;;
68614;SDS011;55593;51.994;5.882;2023-05-14T07:51:07;17.67;;;10.38;;
68614;SDS011;55593;51.994;5.882;2023-05-14T07:53:36;15.20;;;9.60;;
68614;SDS011;55593;51.994;5.882;2023-05-14T07:56:06;13.20;;;9.60;;
68614;SDS011;55593;51.994;5.882;2023-05-14T07:58:36;17.42;;;9.32;;
68614;SDS011;55593;51.994;5.882;2023-05-14T08:01:06;20.00;;;9.80;;
68614;SDS011;55593;51.994;5.882;2023-05-14T08:03:37;12.35;;;9.73;;
68614;SDS011;55593;51.994;5.882;2023-05-14T08:06:06;13.20;;;9.30;;
68614;SDS011;55593;51.994;5.882;2023-05-14T08:08:36;14.77;;;8.18;;
68614;SDS011;55593;51.994;5.882;2023-05-14T08:11:05;9.85;;;7.15;;
68614;SDS011;55593;51.994;5.882;2023-05-14T08:13:34;12.15;;;8.38;;
68614;SDS011;55593;51.994;5.882;2023-05-14T08:16:04;15.90;;;7.38;;
68614;SDS011;55593;51.994;5.882;2023-05-14T08:18:36;14.32;;;7.60;;
68614;SDS011;55593;51.994;5.882;2023-05-14T08:21:06;13.15;;;7.60;;
68614;SDS011;55593;51.994;5.882;2023-05-14T08:23:35;11.85;;;6.70;;
68614;SDS011;55593;51.994;5.882;2023-05-14T08:26:04;9.50;;;7.35;;
68614;SDS011;55593;51.994;5.882;2023-05-14T08:28:33;12.25;;;6.88;;
68614;SDS011;55593;51.994;5.882;2023-05-14T08:31:02;9.73;;;6.43;;
68614;SDS011;55593;51.994;5.882;2023-05-14T08:33:32;8.63;;;6.65;;
68614;SDS011;55593;51.994;5.882;2023-05-14T08:36:04;13.25;;;6.25;;
68614;SDS011;55593;51.994;5.882;2023-05-14T08:38:33;10.05;;;6.45;;
68614;SDS011;55593;51.994;5.882;2023-05-14T08:41:03;13.75;;;5.72;;
68614;SDS011;55593;51.994;5.882;2023-05-14T08:43:36;11.40;;;4.82;;
68614;SDS011;55593;51.994;5.882;2023-05-14T08:46:09;9.02;;;4.28;;
68614;SDS011;55593;51.994;5.882;2023-05-14T08:48:41;8.35;;;4.35;;
68614;SDS011;55593;51.994;5.882;2023-05-14T08:51:13;9.80;;;4.75;;
68614;SDS011;55593;51.994;5.882;2023-05-14T08:53:43;7.63;;;4.85;;
68614;SDS011;55593;51.994;5.882;2023-05-14T08:56:12;10.70;;;4.22;;
68614;SDS011;55593;51.994;5.882;2023-05-14T08:58:42;10.80;;;4.43;;
68614;SDS011;55593;51.994;5.882;2023-05-14T09:01:12;7.53;;;4.03;;
68614;SDS011;55593;51.994;5.882;2023-05-14T09:03:41;10.98;;;4.97;;
68614;SDS011;55593;51.994;5.882;2023-05-14T09:06:13;8.90;;;3.70;;
68614;SDS011;55593;51.994;5.882;2023-05-14T09:08:42;12.77;;;4.28;;
68614;SDS011;55593;51.994;5.882;2023-05-14T09:11:11;7.55;;;4.25;;
68614;SDS011;55593;51.994;5.882;2023-05-14T09:13:40;7.85;;;4.35;;
68614;SDS011;55593;51.994;5.882;2023-05-14T09:16:10;9.32;;;4.53;;
68614;SDS011;55593;51.994;5.882;2023-05-14T09:18:42;5.97;;;4.03;;
68614;SDS011;55593;51.994;5.882;2023-05-14T09:21:14;11.48;;;4.80;;
68614;SDS011;55593;51.994;5.882;2023-05-14T09:23:44;6.05;;;4.15;;
68614;SDS011;55593;51.994;5.882;2023-05-14T09:26:16;8.82;;;4.30;;
68614;SDS011;55593;51.994;5.882;2023-05-14T09:28:46;6.22;;;4.30;;
68614;SDS011;55593;51.994;5.882;2023-05-14T09:31:15;7.57;;;4.40;;
68614;SDS011;55593;51.994;5.882;2023-05-14T09:33:47;7.90;;;4.43;;
68614;SDS011;55593;51.994;5.882;2023-05-14T09:36:20;9.98;;;4.00;;
68614;SDS011;55593;51.994;5.882;2023-05-14T09:38:49;8.07;;;4.45;;
68614;SDS011;55593;51.994;5.882;2023-05-14T09:41:19;6.10;;;3.92;;
68614;SDS011;55593;51.994;5.882;2023-05-14T09:43:48;10.88;;;4.10;;
68614;SDS011;55593;51.994;5.882;2023-05-14T09:46:17;7.07;;;4.18;;
68614;SDS011;55593;51.994;5.882;2023-05-14T09:48:47;10.25;;;4.68;;
68614;SDS011;55593;51.994;5.882;2023-05-14T09:51:16;8.55;;;4.43;;
68614;SDS011;55593;51.994;5.882;2023-05-14T09:53:48;8.27;;;4.35;;
68614;SDS011;55593;51.994;5.882;2023-05-14T09:56:18;7.95;;;4.70;;
68614;SDS011;55593;51.994;5.882;2023-05-14T09:58:48;7.20;;;3.83;;
68614;SDS011;55593;51.994;5.882;2023-05-14T10:01:17;7.65;;;4.50;;
68614;SDS011;55593;51.994;5.882;2023-05-14T10:03:47;9.48;;;4.50;;
68614;SDS011;55593;51.994;5.882;2023-05-14T10:06:16;10.40;;;4.50;;
68614;SDS011;55593;51.994;5.882;2023-05-14T10:08:51;9.13;;;4.30;;
68614;SDS011;55593;51.994;5.882;2023-05-14T10:11:23;8.18;;;4.07;;
68614;SDS011;55593;51.994;5.882;2023-05-14T10:13:54;9.27;;;3.72;;
68614;SDS011;55593;51.994;5.882;2023-05-14T10:16:26;9.20;;;3.85;;
68614;SDS011;55593;51.994;5.882;2023-05-14T10:18:59;8.00;;;3.80;;
68614;SDS011;55593;51.994;5.882;2023-05-14T10:21:29;10.70;;;4.05;;
68614;SDS011;55593;51.994;5.882;2023-05-14T10:24:02;9.55;;;3.80;;
68614;SDS011;55593;51.994;5.882;2023-05-14T10:26:33;8.77;;;4.40;;
68614;SDS011;55593;51.994;5.882;2023-05-14T10:29:04;6.80;;;3.13;;
68614;SDS011;55593;51.994;5.882;2023-05-14T10:31:43;5.80;;;3.55;;
68614;SDS011;55593;51.994;5.882;2023-05-14T10:37:03;12.60;;;3.40;;
68614;SDS011;55593;51.994;5.882;2023-05-14T10:39:45;7.50;;;3.50;;
68614;SDS011;55593;51.994;5.882;2023-05-14T10:42:16;8.85;;;3.17;;
68614;SDS011;55593;51.994;5.882;2023-05-14T10:44:46;8.48;;;3.53;;
68614;SDS011;55593;51.994;5.882;2023-05-14T10:47:17;12.02;;;4.03;;
68614;SDS011;55593;51.994;5.882;2023-05-14T10:49:46;5.05;;;3.33;;
68614;SDS011;55593;51.994;5.882;2023-05-14T10:52:18;6.78;;;3.67;;
68614;SDS011;55593;51.994;5.882;2023-05-14T10:54:54;6.20;;;3.20;;
68614;SDS011;55593;51.994;5.882;2023-05-14T10:57:24;6.75;;;3.50;;
68614;SDS011;55593;51.994;5.882;2023-05-14T10:59:55;6.45;;;3.67;;
68614;SDS011;55593;51.994;5.882;2023-05-14T11:02:25;17.27;;;3.50;;
68614;SDS011;55593;51.994;5.882;2023-05-14T11:04:56;4.60;;;3.00;;
68614;SDS011;55593;51.994;5.882;2023-05-14T11:07:29;5.60;;;3.20;;
68614;SDS011;55593;51.994;5.882;2023-05-14T11:10:02;6.10;;;3.05;;
68614;SDS011;55593;51.994;5.882;2023-05-14T11:12:32;6.25;;;4.00;;
68614;SDS011;55593;51.994;5.882;2023-05-14T11:15:03;7.57;;;3.38;;
68614;SDS011;55593;51.994;5.882;2023-05-14T11:17:34;7.63;;;3.20;;
68614;SDS011;55593;51.994;5.882;2023-05-14T11:20:05;7.13;;;3.47;;
68614;SDS011;55593;51.994;5.882;2023-05-14T11:22:35;5.07;;;3.10;;
68614;SDS011;55593;51.994;5.882;2023-05-14T11:25:09;10.00;;;3.30;;
68614;SDS011;55593;51.994;5.882;2023-05-14T11:27:40;5.00;;;3.33;;
68614;SDS011;55593;51.994;5.882;2023-05-14T11:30:14;6.78;;;3.53;;
68614;SDS011;55593;51.994;5.882;2023-05-14T11:32:45;7.93;;;2.97;;
68614;SDS011;55593;51.994;5.882;2023-05-14T11:35:14;18.52;;;3.33;;
68614;SDS011;55593;51.994;5.882;2023-05-14T11:37:48;6.50;;;3.03;;
68614;SDS011;55593;51.994;5.882;2023-05-14T11:40:21;6.35;;;3.35;;
68614;SDS011;55593;51.994;5.882;2023-05-14T11:42:51;7.90;;;2.97;;
68614;SDS011;55593;51.994;5.882;2023-05-14T11:45:24;9.20;;;3.00;;
68614;SDS011;55593;51.994;5.882;2023-05-14T11:47:54;6.97;;;3.05;;
68614;SDS011;55593;51.994;5.882;2023-05-14T11:50:23;6.85;;;3.38;;
68614;SDS011;55593;51.994;5.882;2023-05-14T11:52:55;9.65;;;3.90;;
68614;SDS011;55593;51.994;5.882;2023-05-14T11:55:27;8.88;;;3.50;;
68614;SDS011;55593;51.994;5.882;2023-05-14T11:57:56;11.43;;;4.88;;
68614;SDS011;55593;51.994;5.882;2023-05-14T12:00:25;11.60;;;4.85;;
68614;SDS011;55593;51.994;5.882;2023-05-14T12:02:56;7.60;;;4.38;;
68614;SDS011;55593;51.994;5.882;2023-05-14T12:05:25;7.78;;;4.22;;
68614;SDS011;55593;51.994;5.882;2023-05-14T12:07:54;15.52;;;4.72;;
68614;SDS011;55593;51.994;5.882;2023-05-14T12:10:23;7.72;;;3.70;;
68614;SDS011;55593;51.994;5.882;2023-05-14T12:12:55;9.98;;;3.95;;
68614;SDS011;55593;51.994;5.882;2023-05-14T12:15:24;9.10;;;4.30;;
68614;SDS011;55593;51.994;5.882;2023-05-14T12:17:54;8.48;;;4.30;;
68614;SDS011;55593;51.994;5.882;2023-05-14T12:20:23;9.90;;;4.30;;
68614;SDS011;55593;51.994;5.882;2023-05-14T12:22:53;6.95;;;4.78;;
68614;SDS011;55593;51.994;5.882;2023-05-14T12:25:22;6.85;;;3.70;;
68614;SDS011;55593;51.994;5.882;2023-05-14T12:27:56;8.48;;;3.35;;
68614;SDS011;55593;51.994;5.882;2023-05-14T12:30:25;17.90;;;4.25;;
68614;SDS011;55593;51.994;5.882;2023-05-14T12:32:54;4.82;;;3.47;;
68614;SDS011;55593;51.994;5.882;2023-05-14T12:35:23;10.02;;;3.53;;
68614;SDS011;55593;51.994;5.882;2023-05-14T12:37:53;13.05;;;3.85;;
68614;SDS011;55593;51.994;5.882;2023-05-14T12:40:22;6.20;;;3.38;;
68614;SDS011;55593;51.994;5.882;2023-05-14T12:42:51;11.75;;;4.57;;
68614;SDS011;55593;51.994;5.882;2023-05-14T12:45:23;11.35;;;4.18;;
68614;SDS011;55593;51.994;5.882;2023-05-14T12:47:52;9.07;;;4.32;;
68614;SDS011;55593;51.994;5.882;2023-05-14T12:50:21;8.18;;;4.70;;
68614;SDS011;55593;51.994;5.882;2023-05-14T12:52:50;12.23;;;4.53;;
68614;SDS011;55593;51.994;5.882;2023-05-14T12:55:19;7.97;;;3.97;;
68614;SDS011;55593;51.994;5.882;2023-05-14T12:57:49;12.43;;;4.30;;
68614;SDS011;55593;51.994;5.882;2023-05-14T13:00:18;8.05;;;4.35;;
68614;SDS011;55593;51.994;5.882;2023-05-14T13:02:50;9.13;;;4.28;;
68614;SDS011;55593;51.994;5.882;2023-05-14T13:05:19;6.95;;;4.25;;
68614;SDS011;55593;51.994;5.882;2023-05-14T13:07:48;10.40;;;4.90;;
68614;SDS011;55593;51.994;5.882;2023-05-14T13:10:19;9.98;;;5.03;;
68614;SDS011;55593;51.994;5.882;2023-05-14T13:12:49;10.93;;;4.03;;
68614;SDS011;55593;51.994;5.882;2023-05-14T13:15:18;11.18;;;4.55;;
68614;SDS011;55593;51.994;5.882;2023-05-14T13:17:50;10.52;;;4.50;;
68614;SDS011;55593;51.994;5.882;2023-05-14T13:20:19;11.88;;;3.80;;
68614;SDS011;55593;51.994;5.882;2023-05-14T13:22:49;13.02;;;3.90;;
68614;SDS011;55593;51.994;5.882;2023-05-14T13:25:18;8.65;;;4.43;;
68614;SDS011;55593;51.994;5.882;2023-05-14T13:27:47;11.52;;;4.38;;
68614;SDS011;55593;51.994;5.882;2023-05-14T13:30:17;9.43;;;5.07;;
68614;SDS011;55593;51.994;5.882;2023-05-14T13:32:46;11.30;;;4.30;;
68614;SDS011;55593;51.994;5.882;2023-05-14T13:35:18;9.80;;;4.97;;
68614;SDS011;55593;51.994;5.882;2023-05-14T13:37:47;7.80;;;4.68;;
68614;SDS011;55593;51.994;5.882;2023-05-14T13:40:17;9.80;;;4.57;;
68614;SDS011;55593;51.994;5.882;2023-05-14T13:42:46;10.68;;;4.55;;
68614;SDS011;55593;51.994;5.882;2023-05-14T13:45:15;8.82;;;4.28;;
68614;SDS011;55593;51.994;5.882;2023-05-14T13:47:44;13.32;;;4.45;;
68614;SDS011;55593;51.994;5.882;2023-05-14T13:50:16;11.57;;;4.55;;
68614;SDS011;55593;51.994;5.882;2023-05-14T13:52:46;9.45;;;4.20;;
68614;SDS011;55593;51.994;5.882;2023-05-14T13:55:15;6.07;;;4.15;;
68614;SDS011;55593;51.994;5.882;2023-05-14T13:57:45;10.25;;;4.88;;
68614;SDS011;55593;51.994;5.882;2023-05-14T14:00:14;11.00;;;4.20;;
68614;SDS011;55593;51.994;5.882;2023-05-14T14:02:44;6.80;;;4.00;;
68614;SDS011;55593;51.994;5.882;2023-05-14T14:05:18;8.88;;;3.95;;
68614;SDS011;55593;51.994;5.882;2023-05-14T14:07:50;10.30;;;3.83;;
68614;SDS011;55593;51.994;5.882;2023-05-14T14:10:19;11.23;;;4.80;;
68614;SDS011;55593;51.994;5.882;2023-05-14T14:12:49;7.55;;;3.97;;
68614;SDS011;55593;51.994;5.882;2023-05-14T14:15:18;7.90;;;4.60;;
68614;SDS011;55593;51.994;5.882;2023-05-14T14:17:48;11.95;;;4.78;;
68614;SDS011;55593;51.994;5.882;2023-05-14T14:20:19;13.75;;;4.63;;
68614;SDS011;55593;51.994;5.882;2023-05-14T14:22:49;11.20;;;5.13;;
68614;SDS011;55593;51.994;5.882;2023-05-14T14:25:18;14.70;;;4.50;;
68614;SDS011;55593;51.994;5.882;2023-05-14T14:27:47;13.32;;;4.70;;
68614;SDS011;55593;51.994;5.882;2023-05-14T14:30:16;8.77;;;4.93;;
68614;SDS011;55593;51.994;5.882;2023-05-14T14:32:46;13.00;;;4.55;;
68614;SDS011;55593;51.994;5.882;2023-05-14T14:35:16;9.68;;;4.35;;
68614;SDS011;55593;51.994;5.882;2023-05-14T14:37:48;9.85;;;4.13;;
68614;SDS011;55593;51.994;5.882;2023-05-14T14:40:18;12.85;;;4.68;;
68614;SDS011;55593;51.994;5.882;2023-05-14T14:42:48;12.73;;;4.15;;
68614;SDS011;55593;51.994;5.882;2023-05-14T14:45:17;10.48;;;4.50;;
68614;SDS011;55593;51.994;5.882;2023-05-14T14:47:47;7.13;;;3.90;;
68614;SDS011;55593;51.994;5.882;2023-05-14T14:50:16;10.38;;;4.65;;